This is the latest recevied weather packets stored in our database for station/object Ummendorf. If no packets are shown the sender has not sent any weather packets the latest 10 day(s).
| Time | Temp. | Humidity | Pressure | Rain* | Wind** | Luminosity | Snow |
|---|---|---|---|---|---|---|---|
| 1777984330 | 16.11° C | 46% | 1008.4 hPa | 0 mm | - | - | - |
| 1777982530 | 16.11° C | 52% | 1008.5 hPa | 0 mm | - | - | - |
| 1777980730 | 16.11° C | 49% | 1008.5 hPa | 0 mm | - | - | - |
| 1777978931 | 16.11° C | 50% | 1008.3 hPa | 0 mm | - | - | - |
| 1777977131 | 16.11° C | 51% | 1008.2 hPa | 0 mm | - | - | - |
| 1777975332 | 16.67° C | 50% | 1008.2 hPa | 0 mm | - | - | - |
| 1777973532 | 17.22° C | 48% | 1008.4 hPa | 0 mm | - | - | - |
| 1777971732 | 17.22° C | 48% | 1008.6 hPa | 0 mm | - | - | - |
| 1777969931 | 15.56° C | 50% | 1008.4 hPa | 0 mm | - | - | - |
| 1777968131 | 14.44° C | 52% | 1008.7 hPa | 0 mm | - | - | - |
| 1777966330 | 13.33° C | 54% | 1009 hPa | 0 mm | - | - | - |
| 1777964532 | 12.78° C | 56% | 1009.2 hPa | 0 mm | - | - | - |
| 1777962731 | 10.56° C | 65% | 1009.5 hPa | 0 mm | - | - | - |
| 1777960932 | 8.33° C | 66% | 1009.8 hPa | 0 mm | - | - | - |
| 1777959131 | 7.22° C | 65% | 1009.6 hPa | 0 mm | - | - | - |
| 1777957331 | 6.67° C | 65% | 1009.7 hPa | 0 mm | - | - | - |
| 1777955531 | 6.67° C | 64% | 1009.8 hPa | 0 mm | - | - | - |
| 1777953731 | 6.67° C | 63% | 1009.9 hPa | 0 mm | - | - | - |
| 1777951931 | 7.22° C | 63% | 1010.1 hPa | 0 mm | - | - | - |
| 1777950134 | 7.22° C | 62% | 1010.3 hPa | 0 mm | - | - | - |
| 1777948331 | 7.78° C | 61% | 1010.5 hPa | 0 mm | - | - | - |
| 1777946531 | 8.33° C | 61% | 1010.8 hPa | 0 mm | - | - | - |
| 1777944731 | 8.89° C | 60% | 1011 hPa | 0 mm | - | - | - |
| 1777942931 | 9.44° C | 60% | 1011.3 hPa | 0 mm | - | - | - |
| 1777941129 | 10° C | 58% | 1011.5 hPa | 0 mm | - | - | - |
* Rain since midnight (hover to see other rain measurements)
** Current wind speed in m/s (hover to see current wind gust speed)